Time;durP1;ratioP1;P1;durP2;ratioP2;P2;SDS_P1;SDS_P2;PMS_P1;PMS_P2;Temp;Humidity;BMP_temperature;BMP_pressure;BME280_temperature;BME280_humidity;BME280_pressure;Samples;Min_cycle;Max_cycle;Signal;HPM_P1;HPM_P2
2021/08/21 00:01:20;;;;;;;8.23;4.57;;;537.90;2150.40;;;;;;5016742;28;20489;-80
2021/08/21 00:03:45;;;;;;;8.70;4.07;;;537.80;2124.80;;;;;;5016685;28;20025;-79
2021/08/21 00:06:11;;;;;;;9.90;5.07;;;537.90;2150.40;;;;;;5016345;28;20483;-80
2021/08/21 00:08:38;;;;;;;12.15;5.10;;;537.80;2150.40;;;;;;5018193;28;20049;-80
2021/08/21 00:11:04;;;;;;;9.43;4.60;;;512.70;2176.00;;;;;;5018348;28;20112;-80
2021/08/21 00:13:29;;;;;;;10.20;4.85;;;512.80;2176.00;;;;;;5018004;28;20535;-80
2021/08/21 00:15:55;;;;;;;13.68;5.80;;;512.90;2176.00;;;;;;5017996;28;20088;-80
2021/08/21 00:18:21;;;;;;;11.05;4.80;;;512.60;2201.60;;;;;;5018057;28;20034;-79
2021/08/21 00:20:48;;;;;;;9.85;5.30;;;512.80;2201.60;;;;;;5017903;28;20101;-80
2021/08/21 00:23:15;;;;;;;9.88;4.82;;;512.90;2201.60;;;;;;5017850;28;20052;-80
2021/08/21 00:25:41;;;;;;;12.38;5.63;;;512.90;2176.00;;;;;;5034582;28;20100;-80
2021/08/21 00:28:07;;;;;;;16.20;5.97;;;512.90;2176.00;;;;;;5035038;28;20415;-80
2021/08/21 00:30:33;;;;;;;9.60;5.20;;;512.90;2176.00;;;;;;5016180;28;20025;-80
2021/08/21 00:32:58;;;;;;;9.73;5.15;;;512.90;2176.00;;;;;;5016063;28;20080;-81
2021/08/21 00:35:24;;;;;;;10.70;5.43;;;512.90;2176.00;;;;;;5035506;28;20057;-81
2021/08/21 00:37:51;;;;;;;12.05;4.68;;;512.80;2176.00;;;;;;5017676;28;20026;-80
2021/08/21 00:40:17;;;;;;;8.65;5.20;;;512.60;2201.60;;;;;;5017938;28;20025;-80
2021/08/21 00:42:42;;;;;;;8.95;4.57;;;512.70;2201.60;;;;;;5017372;28;20144;-80
2021/08/21 00:45:09;;;;;;;9.70;4.65;;;512.80;2201.60;;;;;;5017849;28;20463;-80
2021/08/21 00:47:35;;;;;;;7.78;4.18;;;512.90;2201.60;;;;;;5017845;28;20029;-80
2021/08/21 00:50:01;;;;;;;9.80;4.68;;;512.90;2201.60;;;;;;5017451;28;20037;-81
2021/08/21 00:52:30;;;;;;;8.57;4.82;;;512.80;2201.60;;;;;;5017790;28;20026;-80
2021/08/21 00:54:57;;;;;;;6.93;4.07;;;512.60;2201.60;;;;;;5017758;28;20022;-80
2021/08/21 00:57:23;;;;;;;9.60;5.07;;;512.60;2201.60;;;;;;5035525;28;20107;-80
2021/08/21 00:59:52;;;;;;;8.02;4.03;;;512.50;2227.20;;;;;;5017498;28;20104;-79
2021/08/21 01:02:18;;;;;;;7.70;3.88;;;512.60;2201.60;;;;;;5017200;28;20034;-81
2021/08/21 01:04:47;;;;;;;8.07;4.40;;;512.60;2227.20;;;;;;5035027;28;20048;-80
2021/08/21 01:07:27;;;;;;;10.05;4.10;;;512.60;2227.20;;;;;;5017587;28;20061;-80
2021/08/21 01:09:53;;;;;;;8.18;4.47;;;512.60;2227.20;;;;;;5017369;28;20025;-80
2021/08/21 01:12:20;;;;;;;6.82;4.22;;;512.50;2227.20;;;;;;5017383;28;20390;-80
2021/08/21 01:14:47;;;;;;;9.65;4.50;;;512.60;2252.80;;;;;;5017315;28;20057;-80
2021/08/21 01:17:14;;;;;;;7.60;4.38;;;512.60;2227.20;;;;;;5017162;28;20022;-79
2021/08/21 01:19:42;;;;;;;7.72;4.22;;;512.80;2227.20;;;;;;5017293;28;20122;-81
2021/08/21 01:22:11;;;;;;;12.57;4.90;;;512.60;2227.20;;;;;;5017174;28;20029;-80
2021/08/21 01:24:37;;;;;;;13.27;5.05;;;512.60;2227.20;;;;;;5034551;28;20060;-81
2021/08/21 01:27:03;;;;;;;13.38;5.43;;;512.50;2227.20;;;;;;5017072;28;20471;-80
2021/08/21 01:29:29;;;;;;;12.32;5.25;;;512.50;2227.20;;;;;;5017176;28;20033;-80
2021/08/21 01:31:55;;;;;;;10.85;5.35;;;512.40;2227.20;;;;;;5016784;28;20049;-81
2021/08/21 01:34:21;;;;;;;7.82;4.22;;;512.40;2252.80;;;;;;5016998;28;20026;-80
2021/08/21 01:36:50;;;;;;;10.98;5.10;;;512.40;2252.80;;;;;;5016791;28;20036;-80
2021/08/21 01:39:17;;;;;;;9.13;4.90;;;512.40;2252.80;;;;;;5016496;28;20041;-81
2021/08/21 01:41:44;;;;;;;7.47;4.63;;;512.40;2252.80;;;;;;5016958;28;20034;-79
2021/08/21 01:44:15;;;;;;;11.48;4.75;;;487.20;2252.80;;;;;;5016003;28;20022;-80
2021/08/21 01:46:42;;;;;;;9.85;4.95;;;512.10;2278.40;;;;;;5016465;28;20120;-81
2021/08/21 01:49:11;;;;;;;7.85;4.90;;;512.20;2278.40;;;;;;5016780;28;20034;-80
2021/08/21 01:51:39;;;;;;;10.00;5.20;;;487.30;2278.40;;;;;;5016587;28;20375;-80
2021/08/21 01:54:05;;;;;;;9.77;5.32;;;512.20;2304.00;;;;;;5016718;28;20116;-80
2021/08/21 01:56:40;;;;;;;11.50;4.80;;;487.30;2329.60;;;;;;5016360;28;20133;-80
2021/08/21 01:59:06;;;;;;;9.20;4.88;;;512.00;2329.60;;;;;;5016319;28;20033;-80
2021/08/21 02:01:32;;;;;;;8.30;4.40;;;487.20;2355.20;;;;;;5016462;28;20093;-81
2021/08/21 02:03:58;;;;;;;8.05;5.03;;;487.10;2380.80;;;;;;5016383;28;20067;-80
2021/08/21 02:06:23;;;;;;;7.80;4.57;;;487.10;2380.80;;;;;;5016468;28;20026;-80
2021/08/21 02:08:49;;;;;;;12.18;5.05;;;487.10;2380.80;;;;;;5034063;28;20037;-81
2021/08/21 02:11:15;;;;;;;8.05;4.97;;;486.80;2380.80;;;;;;5016381;28;20117;-80
2021/08/21 02:13:41;;;;;;;10.32;4.93;;;486.80;2380.80;;;;;;5016161;28;20032;-81
2021/08/21 02:16:06;;;;;;;8.48;5.00;;;487.00;2380.80;;;;;;5016258;28;20029;-81
2021/08/21 02:18:32;;;;;;;7.70;4.90;;;487.10;2380.80;;;;;;5016185;28;20033;-81
2021/08/21 02:20:58;;;;;;;7.38;4.57;;;487.00;2380.80;;;;;;5016034;28;20033;-81
2021/08/21 02:23:25;;;;;;;12.00;4.35;;;487.10;2380.80;;;;;;5016201;28;20025;-81
2021/08/21 02:25:56;;;;;;;9.43;4.95;;;487.10;2380.80;;;;;;5016101;28;20025;-81
2021/08/21 02:28:22;;;;;;;9.02;4.43;;;487.10;2380.80;;;;;;5016214;28;20060;-80
2021/08/21 02:30:48;;;;;;;9.95;4.68;;;487.10;2380.80;;;;;;5016419;28;20026;-81
2021/08/21 02:33:13;;;;;;;8.48;4.72;;;487.20;2380.80;;;;;;5015725;28;20026;-81
2021/08/21 02:35:40;;;;;;;10.50;3.47;;;487.10;2380.80;;;;;;5016050;28;20072;-80
2021/08/21 02:38:08;;;;;;;7.40;4.43;;;487.20;2380.80;;;;;;5016038;28;20108;-82
2021/08/21 02:40:33;;;;;;;12.90;5.90;;;487.20;2380.80;;;;;;5015715;28;20035;-81
2021/08/21 02:42:59;;;;;;;10.68;6.00;;;487.30;2380.80;;;;;;5015962;28;20025;-80
2021/08/21 02:45:25;;;;;;;11.68;6.43;;;487.30;2380.80;;;;;;5034142;28;20026;-80
2021/08/21 02:47:51;;;;;;;11.80;6.10;;;487.30;2355.20;;;;;;5015824;28;20523;-81
2021/08/21 02:50:17;;;;;;;14.02;6.68;;;487.20;2380.80;;;;;;5033692;28;20026;-80
2021/08/21 02:52:42;;;;;;;12.38;6.30;;;487.10;2380.80;;;;;;5015986;28;20030;-80
2021/08/21 02:55:09;;;;;;;11.63;6.13;;;486.90;2380.80;;;;;;5016162;28;20025;-81
2021/08/21 02:57:34;;;;;;;11.07;6.88;;;486.80;2380.80;;;;;;5019427;28;20081;-81
2021/08/21 03:00:00;;;;;;;10.93;5.38;;;487.00;2380.80;;;;;;5037597;28;20475;-80
2021/08/21 03:02:26;;;;;;;9.75;5.03;;;487.20;2380.80;;;;;;5019753;28;20059;-80
2021/08/21 03:04:52;;;;;;;8.82;5.03;;;487.30;2380.80;;;;;;5037449;28;20386;-80
2021/08/21 03:07:18;;;;;;;7.53;4.57;;;487.20;2380.80;;;;;;5037492;28;20029;-81
2021/08/21 03:09:44;;;;;;;7.53;4.47;;;487.20;2380.80;;;;;;5019479;28;20040;-80
2021/08/21 03:12:10;;;;;;;9.10;5.10;;;487.20;2380.80;;;;;;5019608;28;20025;-80
2021/08/21 03:14:35;;;;;;;10.15;5.38;;;487.30;2380.80;;;;;;5019658;28;20036;-81
2021/08/21 03:17:01;;;;;;;9.88;4.70;;;512.00;2380.80;;;;;;5037102;28;20037;-80
2021/08/21 03:19:27;;;;;;;9.38;5.07;;;512.10;2380.80;;;;;;5037009;28;20053;-80
2021/08/21 03:21:53;;;;;;;9.73;5.35;;;487.20;2380.80;;;;;;5019235;28;20033;-80
2021/08/21 03:24:19;;;;;;;13.43;5.88;;;487.30;2380.80;;;;;;5019456;28;20053;-81
2021/08/21 03:26:44;;;;;;;12.20;5.45;;;487.30;2380.80;;;;;;5037185;28;20100;-81
2021/08/21 03:29:10;;;;;;;14.05;6.03;;;487.30;2380.80;;;;;;5019064;28;20381;-80
2021/08/21 03:31:36;;;;;;;14.15;6.07;;;512.00;2380.80;;;;;;5018980;28;20024;-81
2021/08/21 03:34:02;;;;;;;14.00;5.70;;;487.30;2380.80;;;;;;5019175;28;20026;-79
2021/08/21 03:36:29;;;;;;;12.00;6.00;;;486.80;2380.80;;;;;;5018863;28;20115;-80
2021/08/21 03:38:54;;;;;;;9.40;6.00;;;487.10;2380.80;;;;;;5019165;28;20033;-80
2021/08/21 03:41:20;;;;;;;10.30;5.45;;;487.00;2380.80;;;;;;5019249;28;20386;-80
2021/08/21 03:43:46;;;;;;;10.07;5.95;;;486.80;2380.80;;;;;;5018654;28;20220;-80
2021/08/21 03:46:12;;;;;;;17.80;6.07;;;486.90;2380.80;;;;;;5019033;28;20029;-80
2021/08/21 03:48:37;;;;;;;10.90;5.65;;;487.00;2380.80;;;;;;5036697;28;20041;-82
2021/08/21 03:51:03;;;;;;;13.15;5.85;;;487.10;2380.80;;;;;;5018746;28;20083;-80
2021/08/21 03:53:29;;;;;;;12.82;6.10;;;487.10;2380.80;;;;;;5018866;28;20026;-80
2021/08/21 03:55:55;;;;;;;16.63;6.18;;;486.90;2380.80;;;;;;5018665;28;20054;-80
2021/08/21 03:58:21;;;;;;;12.90;6.15;;;487.00;2380.80;;;;;;5036224;28;20378;-80
2021/08/21 04:00:46;;;;;;;12.55;6.00;;;487.00;2380.80;;;;;;5018833;28;20036;-81
2021/08/21 04:03:12;;;;;;;9.90;6.53;;;486.80;2380.80;;;;;;5018670;28;20033;-80
2021/08/21 04:05:38;;;;;;;11.60;5.80;;;486.80;2380.80;;;;;;5025429;28;20475;-80
2021/08/21 04:08:04;;;;;;;12.60;6.20;;;486.60;2380.80;;;;;;5030467;28;20022;-81
2021/08/21 04:10:30;;;;;;;11.43;5.53;;;486.70;2380.80;;;;;;5044146;28;20021;-81
2021/08/21 04:12:56;;;;;;;19.42;6.03;;;486.80;2380.80;;;;;;5018258;28;20067;-79
2021/08/21 04:15:22;;;;;;;13.30;6.78;;;486.70;2380.80;;;;;;5036199;28;20029;-80
2021/08/21 04:17:47;;;;;;;16.13;6.47;;;486.80;2380.80;;;;;;5035991;28;20025;-81
2021/08/21 04:20:13;;;;;;;15.73;6.72;;;486.70;2380.80;;;;;;5018007;28;20041;-80
2021/08/21 04:22:39;;;;;;;15.75;6.65;;;486.60;2380.80;;;;;;5018407;28;20033;-80
2021/08/21 04:25:06;;;;;;;18.65;7.57;;;486.50;2380.80;;;;;;5018117;28;20379;-82
2021/08/21 04:27:31;;;;;;;10.23;6.90;;;461.70;2380.80;;;;;;5018175;28;20022;-80
2021/08/21 04:29:57;;;;;;;15.35;7.95;;;486.40;2380.80;;;;;;5035763;28;20391;-79
2021/08/21 04:32:23;;;;;;;14.32;6.68;;;461.60;2380.80;;;;;;5017936;28;20034;-79
2021/08/21 04:34:49;;;;;;;14.60;7.53;;;461.40;2380.80;;;;;;5018218;28;20048;-80
2021/08/21 04:37:16;;;;;;;12.48;6.47;;;461.70;2380.80;;;;;;5018011;28;20025;-81
2021/08/21 04:39:42;;;;;;;13.70;7.22;;;486.50;2380.80;;;;;;5017569;28;20414;-79
2021/08/21 04:42:08;;;;;;;18.15;6.70;;;487.20;2380.80;;;;;;5017960;28;20030;-80
2021/08/21 04:44:34;;;;;;;15.15;7.40;;;486.70;2380.80;;;;;;5017961;28;20029;-80
2021/08/21 04:47:00;;;;;;;14.13;6.47;;;486.60;2380.80;;;;;;5035418;28;20375;-80
2021/08/21 04:49:26;;;;;;;17.10;6.88;;;486.50;2380.80;;;;;;5035594;28;20030;-80
2021/08/21 04:51:52;;;;;;;17.98;7.05;;;461.70;2380.80;;;;;;5035732;28;20084;-81
2021/08/21 04:54:18;;;;;;;16.27;6.63;;;461.70;2380.80;;;;;;5017190;28;20498;-81
2021/08/21 04:56:43;;;;;;;17.17;7.20;;;461.60;2380.80;;;;;;5035043;28;20064;-80
2021/08/21 04:59:09;;;;;;;14.70;6.95;;;486.50;2380.80;;;;;;5017570;28;20029;-80
2021/08/21 05:01:35;;;;;;;14.60;6.72;;;486.40;2380.80;;;;;;5017261;28;20485;-80
2021/08/21 05:04:01;;;;;;;15.73;6.05;;;486.50;2380.80;;;;;;5017558;28;20032;-80
2021/08/21 05:06:26;;;;;;;14.93;6.95;;;461.70;2380.80;;;;;;5035094;28;20021;-80
2021/08/21 05:08:52;;;;;;;10.35;5.70;;;486.60;2380.80;;;;;;5034924;28;20037;-80
2021/08/21 05:11:18;;;;;;;11.52;6.32;;;486.80;2380.80;;;;;;5035093;28;20021;-80
2021/08/21 05:13:44;;;;;;;10.57;6.32;;;486.80;2380.80;;;;;;5017445;28;20079;-81
2021/08/21 05:16:09;;;;;;;12.30;5.80;;;486.80;2380.80;;;;;;5034625;28;20053;-80
2021/08/21 05:18:39;;;;;;;12.05;6.93;;;487.10;2380.80;;;;;;5016423;28;20029;-79
2021/08/21 05:21:10;;;;;;;14.60;7.75;;;487.20;2380.80;;;;;;5016906;28;20040;-80
2021/08/21 05:23:38;;;;;;;9.95;6.25;;;487.00;2380.80;;;;;;5017439;28;20433;-80
2021/08/21 05:26:03;;;;;;;10.50;6.07;;;486.90;2380.80;;;;;;5017322;28;20080;-80
2021/08/21 05:28:30;;;;;;;16.80;6.55;;;487.10;2380.80;;;;;;5034565;28;20367;-80
2021/08/21 05:30:56;;;;;;;11.30;6.40;;;486.80;2380.80;;;;;;5017095;28;20026;-79
2021/08/21 05:33:21;;;;;;;17.20;6.55;;;487.10;2380.80;;;;;;5017305;28;20577;-80
2021/08/21 05:35:47;;;;;;;9.50;5.65;;;487.00;2380.80;;;;;;5016719;28;20029;-79
2021/08/21 05:38:13;;;;;;;9.95;5.65;;;487.00;2380.80;;;;;;5016834;28;20478;-80
2021/08/21 05:40:40;;;;;;;9.18;5.40;;;486.90;2380.80;;;;;;5016557;28;20029;-80
2021/08/21 05:43:06;;;;;;;12.20;5.80;;;487.10;2380.80;;;;;;5016652;28;20356;-80
2021/08/21 05:45:32;;;;;;;15.02;6.47;;;487.20;2380.80;;;;;;5016750;28;20208;-81
2021/08/21 05:47:57;;;;;;;12.85;5.85;;;512.20;2380.80;;;;;;5016760;28;20485;-80
2021/08/21 05:50:23;;;;;;;13.38;5.78;;;512.30;2380.80;;;;;;5016465;28;20029;-79
2021/08/21 05:52:50;;;;;;;10.23;5.78;;;512.50;2380.80;;;;;;5034577;28;20021;-79
2021/08/21 05:55:17;;;;;;;9.45;5.43;;;512.60;2380.80;;;;;;5016110;28;20037;-80
2021/08/21 05:57:43;;;;;;;14.73;6.47;;;512.80;2380.80;;;;;;5016306;28;20109;-78
2021/08/21 06:00:09;;;;;;;9.82;6.55;;;512.60;2380.80;;;;;;5016541;28;20120;-79
2021/08/21 06:02:35;;;;;;;11.68;6.95;;;512.40;2380.80;;;;;;5016414;28;20033;-80
2021/08/21 06:05:01;;;;;;;9.30;5.38;;;512.60;2380.80;;;;;;5033892;28;20534;-79
2021/08/21 06:07:30;;;;;;;9.27;5.28;;;512.80;2380.80;;;;;;5016456;28;20211;-79
2021/08/21 06:09:56;;;;;;;8.00;5.28;;;512.90;2380.80;;;;;;5016152;28;20033;-80
2021/08/21 06:12:21;;;;;;;8.15;4.82;;;537.60;2406.40;;;;;;5016428;28;20087;-79
2021/08/21 06:14:47;;;;;;;7.82;4.60;;;537.70;2406.40;;;;;;5016815;28;20060;-77
2021/08/21 06:17:13;;;;;;;10.55;4.72;;;537.80;2406.40;;;;;;5033842;28;20525;-78
2021/08/21 06:19:39;;;;;;;8.38;5.28;;;537.80;2406.40;;;;;;5016328;28;20067;-77
2021/08/21 06:22:06;;;;;;;11.57;5.60;;;537.90;2406.40;;;;;;5033691;28;20112;-77
2021/08/21 06:24:32;;;;;;;12.68;5.95;;;537.80;2406.40;;;;;;5017040;28;20064;-79
2021/08/21 06:26:58;;;;;;;9.23;5.00;;;538.00;2406.40;;;;;;5016222;28;20038;-79
2021/08/21 06:29:24;;;;;;;10.38;5.30;;;538.10;2406.40;;;;;;5015873;28;20057;-79
2021/08/21 06:31:50;;;;;;;7.53;4.50;;;538.10;2406.40;;;;;;5033225;28;20021;-79
2021/08/21 06:34:17;;;;;;;7.03;4.28;;;538.20;2406.40;;;;;;5015966;28;20029;-79
2021/08/21 06:36:44;;;;;;;7.10;4.07;;;538.20;2380.80;;;;;;5015903;28;20033;-79
2021/08/21 06:39:10;;;;;;;8.77;5.47;;;538.30;2380.80;;;;;;5015555;28;20034;-79
2021/08/21 06:41:35;;;;;;;15.52;4.82;;;538.50;2355.20;;;;;;5034960;28;20036;-78
2021/08/21 06:44:02;;;;;;;9.02;4.00;;;563.20;2380.80;;;;;;5015922;28;20053;-78
2021/08/21 06:46:29;;;;;;;7.60;4.88;;;538.50;2355.20;;;;;;5015492;28;20033;-79
2021/08/21 06:48:55;;;;;;;9.25;4.30;;;563.20;2355.20;;;;;;5015863;28;20383;-78
2021/08/21 06:51:21;;;;;;;7.60;4.15;;;563.30;2355.20;;;;;;5015769;28;20029;-79
2021/08/21 06:53:46;;;;;;;8.27;5.90;;;563.40;2329.60;;;;;;5033386;28;20108;-78
2021/08/21 06:56:15;;;;;;;12.32;5.97;;;563.60;2329.60;;;;;;5015607;28;20049;-78
2021/08/21 06:58:40;;;;;;;7.32;4.50;;;563.70;2329.60;;;;;;5015489;28;20372;-78
2021/08/21 07:01:10;;;;;;;11.02;4.50;;;563.70;2304.00;;;;;;5015286;28;20083;-78
2021/08/21 07:03:35;;;;;;;6.82;3.85;;;563.60;2278.40;;;;;;5033501;28;20449;-78
2021/08/21 07:06:01;;;;;;;8.68;4.50;;;563.80;2278.40;;;;;;5015358;28;20056;-78
2021/08/21 07:08:27;;;;;;;10.35;4.88;;;564.00;2252.80;;;;;;5033021;28;20021;-78
2021/08/21 07:10:53;;;;;;;8.10;4.38;;;564.10;2252.80;;;;;;5015593;28;20117;-78
2021/08/21 07:13:18;;;;;;;8.63;4.40;;;564.10;2252.80;;;;;;5015411;28;20022;-78
2021/08/21 07:15:45;;;;;;;11.50;5.13;;;588.80;2252.80;;;;;;5015624;28;20022;-78
2021/08/21 07:18:11;;;;;;;6.63;4.18;;;588.80;2227.20;;;;;;5015435;28;20167;-78
2021/08/21 07:20:36;;;;;;;12.32;4.40;;;588.90;2201.60;;;;;;5032835;28;20120;-78
2021/08/21 07:23:02;;;;;;;9.25;4.13;;;589.00;2201.60;;;;;;5015506;28;20032;-79
2021/08/21 07:25:28;;;;;;;7.50;3.88;;;589.10;2201.60;;;;;;5015575;28;20032;-78
2021/08/21 07:27:54;;;;;;;11.02;4.70;;;589.30;2201.60;;;;;;5015255;28;20125;-78
2021/08/21 07:30:20;;;;;;;11.43;4.60;;;589.50;2176.00;;;;;;5033138;28;20025;-79
2021/08/21 07:32:46;;;;;;;15.60;7.25;;;589.60;2176.00;;;;;;5033071;28;20032;-78
2021/08/21 07:35:11;;;;;;;8.95;5.20;;;614.40;2150.40;;;;;;5015180;28;20026;-79
2021/08/21 07:37:38;;;;;;;9.40;4.68;;;614.60;2150.40;;;;;;5015523;28;20033;-78
2021/08/21 07:40:05;;;;;;;8.00;4.10;;;614.80;2124.80;;;;;;5015639;28;20425;-78
2021/08/21 07:42:31;;;;;;;8.07;4.28;;;615.00;2124.80;;;;;;5017853;28;20025;-78
2021/08/21 07:44:57;;;;;;;9.98;4.10;;;615.10;2099.20;;;;;;5019458;28;20120;-78
2021/08/21 07:47:23;;;;;;;10.32;4.55;;;615.20;2099.20;;;;;;5036501;28;20025;-78
2021/08/21 07:49:48;;;;;;;10.05;5.35;;;640.10;2073.60;;;;;;5036112;28;20406;-78
2021/08/21 07:52:14;;;;;;;11.63;5.85;;;640.20;2073.60;;;;;;5018810;28;20021;-78
2021/08/21 07:54:40;;;;;;;8.05;4.45;;;640.40;2073.60;;;;;;5018872;28;20113;-77
2021/08/21 07:57:06;;;;;;;11.40;4.28;;;640.60;2022.40;;;;;;5018137;28;20407;-79
2021/08/21 07:59:31;;;;;;;9.68;5.22;;;640.60;2022.40;;;;;;5018407;28;20036;-79
2021/08/21 08:01:57;;;;;;;7.93;3.97;;;640.90;2022.40;;;;;;5036158;28;20075;-79
2021/08/21 08:04:23;;;;;;;8.35;4.43;;;640.70;1996.80;;;;;;5018966;28;20025;-79
2021/08/21 08:06:49;;;;;;;10.18;4.68;;;665.60;2022.40;;;;;;5036691;28;20038;-78
2021/08/21 08:09:15;;;;;;;10.35;7.45;;;665.70;1996.80;;;;;;5019496;28;20367;-78
2021/08/21 08:11:40;;;;;;;11.02;6.43;;;666.00;1996.80;;;;;;5013269;28;20365;-80
2021/08/21 08:14:06;;;;;;;11.18;6.05;;;666.10;1996.80;;;;;;4998892;28;20472;-80
2021/08/21 08:16:32;;;;;;;12.45;8.70;;;666.10;1971.20;;;;;;4998240;28;20480;-79
2021/08/21 08:18:58;;;;;;;7.65;6.00;;;666.20;1996.80;;;;;;4998302;28;20032;-79
2021/08/21 08:21:23;;;;;;;6.97;4.00;;;666.50;1945.60;;;;;;4998016;28;20054;-79
2021/08/21 08:23:49;;;;;;;9.23;4.78;;;666.30;1920.00;;;;;;4998009;28;20083;-79
2021/08/21 08:26:15;;;;;;;9.98;3.83;;;666.50;1894.40;;;;;;4998628;28;20057;-76
2021/08/21 08:28:41;;;;;;;9.13;4.03;;;666.30;1894.40;;;;;;5005685;28;20041;-78
2021/08/21 08:31:07;;;;;;;8.95;4.25;;;691.20;1894.40;;;;;;5008828;28;20052;-78
2021/08/21 08:33:34;;;;;;;10.48;3.92;;;691.60;1894.40;;;;;;5026068;28;20056;-76
2021/08/21 08:36:00;;;;;;;7.68;4.25;;;691.70;1817.60;;;;;;4996325;28;20388;-78
2021/08/21 08:38:26;;;;;;;8.15;3.33;;;691.80;1817.60;;;;;;4978543;28;20030;-79
2021/08/21 08:40:52;;;;;;;9.77;6.78;;;691.80;1766.40;;;;;;4996107;28;20041;-80
2021/08/21 08:43:20;;;;;;;11.65;6.18;;;692.00;1817.60;;;;;;4978992;28;20041;-79
2021/08/21 08:45:46;;;;;;;7.80;4.40;;;692.10;1792.00;;;;;;4992819;28;20123;-79
2021/08/21 08:48:16;;;;;;;11.75;3.85;;;692.00;1766.40;;;;;;4997692;28;20130;-76
2021/08/21 08:50:45;;;;;;;10.20;4.50;;;692.10;1766.40;;;;;;4997134;28;20022;-78
2021/08/21 08:53:11;;;;;;;9.13;2.83;;;716.90;1792.00;;;;;;4997849;28;20041;-78
2021/08/21 08:55:37;;;;;;;9.98;5.93;;;717.10;1664.00;;;;;;5018139;28;20061;-78
2021/08/21 08:58:04;;;;;;;6.50;3.90;;;717.40;1664.00;;;;;;5017534;28;20378;-79
2021/08/21 09:00:30;;;;;;;5.75;2.75;;;717.60;1612.80;;;;;;5017608;28;20091;-77
2021/08/21 09:02:58;;;;;;;5.55;2.92;;;717.70;1561.60;;;;;;5035321;28;20108;-79
2021/08/21 09:05:27;;;;;;;9.18;3.67;;;742.40;1587.20;;;;;;5034922;28;20025;-79
2021/08/21 09:07:57;;;;;;;6.70;2.58;;;742.50;1561.60;;;;;;5017152;28;20390;-79
2021/08/21 09:10:31;;;;;;;6.43;2.78;;;742.50;1561.60;;;;;;5034760;28;20053;-76
2021/08/21 09:13:13;;;;;;;7.60;2.25;;;742.50;1536.00;;;;;;5034753;28;20025;-78
2021/08/21 09:15:41;;;;;;;8.95;2.70;;;742.60;1536.00;;;;;;5034828;28;20053;-78
2021/08/21 09:18:13;;;;;;;7.13;3.47;;;742.70;1536.00;;;;;;5017253;28;20497;-77
2021/08/21 09:20:48;;;;;;;4.85;2.70;;;742.60;1536.00;;;;;;5016424;28;20080;-78
2021/08/21 09:23:27;;;;;;;5.15;2.30;;;742.60;1510.40;;;;;;5017093;28;20040;-78
2021/08/21 09:26:24;;;;;;;4.05;2.30;;;742.60;1510.40;;;;;;5016585;28;20099;-78
2021/08/21 09:28:51;;;;;;;7.00;2.97;;;742.80;1510.40;;;;;;5034629;28;20021;-78
2021/08/21 09:31:20;;;;;;;6.43;3.80;;;742.80;1510.40;;;;;;5016656;28;20025;-78
2021/08/21 09:33:58;;;;;;;4.68;2.35;;;743.00;1510.40;;;;;;5033965;28;20021;-77
2021/08/21 09:36:30;;;;;;;4.90;2.55;;;743.10;1459.20;;;;;;5015844;28;20474;-78
2021/08/21 09:38:57;;;;;;;4.20;2.70;;;743.30;1459.20;;;;;;5016486;28;20045;-77
2021/08/21 09:41:23;;;;;;;5.50;2.38;;;743.20;1484.80;;;;;;5016099;28;20117;-77
2021/08/21 09:44:06;;;;;;;6.55;2.20;;;743.10;1459.20;;;;;;5016451;28;20112;-77
2021/08/21 09:46:32;;;;;;;7.30;2.30;;;743.10;1433.60;;;;;;5015861;28;20391;-77
2021/08/21 09:49:01;;;;;;;4.00;2.35;;;743.10;1459.20;;;;;;5015888;28;20033;-77
2021/08/21 09:51:45;;;;;;;4.43;2.50;;;742.90;1459.20;;;;;;5034087;28;20053;-78
2021/08/21 09:54:15;;;;;;;7.57;3.30;;;742.90;1433.60;;;;;;5034290;28;20033;-77
2021/08/21 09:56:44;;;;;;;4.25;2.60;;;742.90;1459.20;;;;;;5016531;28;20607;-79
2021/08/21 09:59:10;;;;;;;5.65;2.70;;;742.80;1484.80;;;;;;5016338;28;20033;-78
2021/08/21 10:01:36;;;;;;;8.00;3.63;;;742.90;1459.20;;;;;;5033858;28;20418;-79
2021/08/21 10:04:03;;;;;;;6.70;2.75;;;742.90;1459.20;;;;;;5034107;28;20030;-79
2021/08/21 10:06:29;;;;;;;4.18;2.83;;;742.90;1484.80;;;;;;5033410;28;20033;-78
2021/08/21 10:09:19;;;;;;;6.07;2.90;;;743.10;1459.20;;;;;;5033478;28;20029;-78
2021/08/21 10:11:43;;;;;;;7.03;3.00;;;743.30;1459.20;;;;;;5033557;28;20371;-78
2021/08/21 10:14:11;;;;;;;8.18;2.80;;;743.30;1459.20;;;;;;5016268;28;20033;-79
2021/08/21 10:16:41;;;;;;;6.75;3.78;;;743.20;1459.20;;;;;;5034063;28;20036;-78
2021/08/21 10:19:07;;;;;;;5.85;3.28;;;743.30;1484.80;;;;;;5015688;28;20037;-80
2021/08/21 10:21:33;;;;;;;5.57;3.00;;;743.20;1459.20;;;;;;5016079;28;20033;-79
2021/08/21 10:23:59;;;;;;;6.30;2.55;;;743.10;1459.20;;;;;;5033891;28;20029;-79
2021/08/21 10:26:39;;;;;;;7.18;3.22;;;768.20;1459.20;;;;;;5033929;28;20032;-79
2021/08/21 10:29:11;;;;;;;6.47;3.17;;;768.40;1433.60;;;;;;5015908;28;20041;-79
2021/08/21 10:31:47;;;;;;;10.07;3.27;;;768.40;1459.20;;;;;;5016042;28;20368;-79
2021/08/21 10:34:14;;;;;;;5.75;3.20;;;768.60;1433.60;;;;;;5016123;28;20267;-79
2021/08/21 10:36:58;;;;;;;11.63;3.88;;;768.90;1433.60;;;;;;5033639;28;20394;-79
2021/08/21 10:39:36;;;;;;;5.57;2.78;;;768.90;1433.60;;;;;;5015824;28;20033;-79
2021/08/21 10:42:30;;;;;;;8.75;3.90;;;768.80;1433.60;;;;;;5015936;28;20029;-79
2021/08/21 10:44:58;;;;;;;4.93;2.63;;;793.80;1433.60;;;;;;5015731;28;20359;-80
2021/08/21 11:21:31;;;;;;;4.47;2.20;;;845.10;1356.80;;;;;;4885207;28;20053;-80
2021/08/21 11:23:57;;;;;;;3.83;2.28;;;845.20;1331.20;;;;;;5019518;28;20076;-80
2021/08/21 11:26:23;;;;;;;4.55;2.72;;;845.20;1305.60;;;;;;5036503;28;20049;-79
2021/08/21 11:29:06;;;;;;;6.88;2.53;;;845.40;1305.60;;;;;;5019461;28;20030;-81
2021/08/21 11:31:55;;;;;;;6.72;3.30;;;845.70;1305.60;;;;;;5019449;28;20410;-79
2021/08/21 11:34:22;;;;;;;4.30;2.55;;;870.70;1280.00;;;;;;5018386;28;20024;-79
2021/08/21 11:36:48;;;;;;;7.10;2.35;;;870.50;1254.40;;;;;;5019146;28;20033;-80
2021/08/21 11:39:14;;;;;;;6.20;2.55;;;870.70;1254.40;;;;;;5018986;28;20061;-81
2021/08/21 11:41:51;;;;;;;6.43;3.05;;;870.70;1280.00;;;;;;5018302;28;20107;-79
2021/08/21 11:44:35;;;;;;;6.38;2.30;;;870.70;1254.40;;;;;;5019314;28;20033;-78
2021/08/21 11:47:04;;;;;;;5.32;3.42;;;870.60;1254.40;;;;;;5018376;28;20029;-79
2021/08/21 11:49:30;;;;;;;6.35;3.22;;;845.50;1280.00;;;;;;5018588;28;20033;-81
2021/08/21 11:52:01;;;;;;;10.90;4.18;;;845.40;1280.00;;;;;;5018743;28;20453;-80
2021/08/21 11:54:27;;;;;;;8.65;3.88;;;845.30;1305.60;;;;;;5018054;28;20031;-80
2021/08/21 11:56:57;;;;;;;7.32;3.65;;;845.20;1280.00;;;;;;5019271;28;20033;-80
2021/08/21 11:59:23;;;;;;;5.82;2.60;;;845.40;1280.00;;;;;;5019907;28;20124;-80
2021/08/21 12:02:05;;;;;;;5.80;2.80;;;845.70;1280.00;;;;;;5018686;28;20112;-80
2021/08/21 12:04:32;;;;;;;6.55;2.22;;;870.50;1254.40;;;;;;5017750;28;20079;-79
2021/08/21 12:06:59;;;;;;;6.18;2.90;;;870.60;1254.40;;;;;;5018511;28;20064;-79
2021/08/21 12:09:25;;;;;;;6.82;2.70;;;870.70;1254.40;;;;;;5017930;28;20032;-81
2021/08/21 12:11:53;;;;;;;6.15;2.55;;;870.70;1280.00;;;;;;5018439;28;20125;-80
2021/08/21 12:14:22;;;;;;;4.25;2.42;;;870.90;1254.40;;;;;;5036629;28;20049;-80
2021/08/21 12:16:54;;;;;;;5.25;2.90;;;871.10;1228.80;;;;;;5017831;28;20029;-79
2021/08/21 12:19:21;;;;;;;4.50;2.80;;;871.30;1228.80;;;;;;5018604;28;20029;-80
2021/08/21 12:21:48;;;;;;;11.25;3.00;;;896.00;1228.80;;;;;;5018094;28;20060;-80
2021/08/21 12:24:14;;;;;;;6.75;2.88;;;896.10;1254.40;;;;;;5018438;28;20029;-79
2021/08/21 12:26:45;;;;;;;3.90;2.35;;;871.30;1254.40;;;;;;5018845;28;20029;-81
2021/08/21 12:29:24;;;;;;;5.93;2.55;;;896.10;1228.80;;;;;;5018023;28;20036;-82
2021/08/21 12:31:51;;;;;;;5.95;2.65;;;896.10;1254.40;;;;;;5018227;28;20029;-82
2021/08/21 12:34:18;;;;;;;9.35;3.78;;;871.00;1228.80;;;;;;5018171;28;20026;-81
2021/08/21 12:36:45;;;;;;;5.22;2.75;;;896.20;1228.80;;;;;;5035877;28;20052;-81
2021/08/21 12:39:25;;;;;;;7.28;2.83;;;896.50;1228.80;;;;;;5037685;28;20035;-80
2021/08/21 12:42:05;;;;;;;6.00;2.95;;;896.70;1228.80;;;;;;5035230;28;20438;-80
2021/08/21 12:44:35;;;;;;;4.80;2.70;;;896.80;1228.80;;;;;;5018034;28;20032;-81
2021/08/21 12:47:15;;;;;;;5.32;3.42;;;896.80;1203.20;;;;;;5018202;28;20029;-80
2021/08/21 12:49:43;;;;;;;4.20;2.88;;;896.70;1203.20;;;;;;5018028;28;20041;-80